Time;durP1;ratioP1;P1;durP2;ratioP2;P2;SDS_P1;SDS_P2;PMS_P1;PMS_P2;Temp;Humidity;BMP_temperature;BMP_pressure;BME280_temperature;BME280_humidity;BME280_pressure;Samples;Min_cycle;Max_cycle;Signal;HPM_P1;HPM_P2
2021/12/16 00:07:28;;;;;;;;;55.40;40.40;;;;;12.14;55.06;100094.09;6267252;27;96962;-64
2021/12/16 00:10:37;;;;;;;;;49.20;38.20;;;;;12.13;55.19;100102.38;6242911;27;97427;-64
2021/12/16 00:31:16;;;;;;;;;52.00;41.80;;;;;11.97;55.96;100076.53;6232293;27;97280;-66
2021/12/16 00:34:21;;;;;;;;;49.60;39.60;;;;;11.93;55.77;100083.38;6238043;27;96992;-64
2021/12/16 00:37:26;;;;;;;;;48.00;39.00;;;;;11.98;56.01;100091.72;6256289;27;97453;-63
2021/12/16 00:40:31;;;;;;;;;51.00;41.00;;;;;11.96;55.85;100079.47;6253823;27;97117;-64
2021/12/16 00:43:40;;;;;;;;;49.25;40.00;;;;;12.00;55.87;100078.84;6231553;28;97623;-64
2021/12/16 00:47:00;;;;;;;;;48.20;39.60;;;;;11.97;56.04;100073.81;6250823;27;96595;-64
2021/12/16 00:50:20;;;;;;;;;51.40;41.00;;;;;11.98;55.99;100080.91;6234612;27;97649;-64
2021/12/16 00:56:57;;;;;;;;;49.80;39.80;;;;;12.10;55.90;100076.59;6245547;27;97004;-65
2021/12/16 01:00:04;;;;;;;;;51.00;40.00;;;;;12.17;55.85;100079.31;6244845;27;97470;-65
2021/12/16 01:03:20;;;;;;;;;50.00;40.40;;;;;12.20;55.49;100073.50;6248507;27;96522;-64
2021/12/16 01:33:55;;;;;;;;;48.00;38.60;;;;;11.96;56.11;100064.06;6225996;28;97060;-65
2021/12/16 01:37:37;;;;;;;;;49.25;39.25;;;;;11.94;56.12;100059.91;6214708;28;96710;-64
2021/12/16 01:51:05;;;;;;;;;49.00;40.00;;;;;11.86;56.28;100038.47;6205181;28;97402;-64
2021/12/16 01:57:40;;;;;;;;;50.40;39.40;;;;;11.79;56.46;100027.63;6232741;28;96933;-65
2021/12/16 02:00:59;;;;;;;;;47.80;37.40;;;;;11.82;56.65;100029.09;6235446;28;97130;-65
2021/12/16 02:04:14;;;;;;;;;48.60;38.40;;;;;11.87;56.31;100023.94;6225676;28;97516;-64
2021/12/16 02:07:33;;;;;;;;;52.00;41.00;;;;;11.97;56.10;100030.59;6222100;27;96722;-65
2021/12/16 02:10:45;;;;;;;;;49.00;38.00;;;;;12.01;55.98;100026.47;6226129;28;96927;-65
2021/12/16 02:27:34;;;;;;;;;49.60;39.00;;;;;12.15;55.46;100021.94;6234851;28;96572;-64
2021/12/16 02:34:23;;;;;;;;;49.00;39.80;;;;;12.14;55.70;100012.97;6239273;28;97033;-64
2021/12/16 02:37:33;;;;;;;;;47.00;38.00;;;;;12.18;55.63;100013.41;6219528;28;97744;-65
2021/12/16 02:40:37;;;;;;;;;48.50;38.50;;;;;12.22;55.37;100008.44;6231985;28;96790;-64
2021/12/16 02:50:28;;;;;;;;;49.60;40.40;;;;;12.30;55.24;100009.06;6244152;27;96640;-65
2021/12/16 02:53:34;;;;;;;;;49.00;38.00;;;;;12.36;54.99;100018.22;6220955;28;98019;-65
2021/12/16 02:56:37;;;;;;;;;52.00;41.00;;;;;12.35;55.07;100011.16;6237441;28;97423;-65
2021/12/16 02:59:41;;;;;;;;;48.40;38.60;;;;;12.34;55.11;100023.84;6215733;28;97051;-64
2021/12/16 03:02:48;;;;;;;;;50.40;39.00;;;;;12.40;55.22;100019.47;6234416;28;97739;-65
2021/12/16 03:05:52;;;;;;;;;48.80;38.80;;;;;12.39;55.22;100021.34;6225616;28;96512;-65
2021/12/16 03:08:57;;;;;;;;;46.40;38.00;;;;;12.36;55.33;100013.66;6223083;28;97464;-64
2021/12/16 03:12:29;;;;;;;;;46.80;37.20;;;;;12.40;55.45;100003.25;6230194;28;97065;-65
2021/12/16 03:15:41;;;;;;;;;45.20;36.00;;;;;12.39;55.46;99998.88;6206369;28;98503;-64
2021/12/16 03:18:50;;;;;;;;;47.40;37.20;;;;;12.39;55.62;99998.88;6218747;28;97579;-64
2021/12/16 03:21:57;;;;;;;;;44.25;34.75;;;;;12.39;55.75;99998.88;6213151;28;97692;-65
2021/12/16 03:25:14;;;;;;;;;44.50;36.50;;;;;12.29;55.77;100001.97;6231951;28;97497;-65
2021/12/16 03:28:38;;;;;;;;;45.00;36.67;;;;;12.36;55.93;100004.72;6219494;28;98498;-64
2021/12/16 03:32:19;;;;;;;;;44.25;36.25;;;;;12.40;55.95;100012.19;6217091;28;97533;-65
2021/12/16 03:35:30;;;;;;;;;45.00;36.00;;;;;12.38;55.98;100018.84;6222288;27;96862;-64
2021/12/16 03:38:36;;;;;;;;;45.00;36.00;;;;;12.41;55.96;100019.25;6225268;28;96837;-65
2021/12/16 03:41:41;;;;;;;;;45.00;34.60;;;;;12.42;55.85;100015.50;6220325;28;96607;-64
2021/12/16 03:44:57;;;;;;;;;44.00;36.00;;;;;12.41;55.93;100016.53;6217598;28;97201;-64
2021/12/16 03:48:06;;;;;;;;;45.50;37.25;;;;;12.44;55.67;100015.31;6209321;28;97854;-65
2021/12/16 03:51:14;;;;;;;;;45.20;36.40;;;;;12.48;55.75;100012.00;6228268;28;97496;-65
2021/12/16 03:54:21;;;;;;;;;47.80;35.00;;;;;12.40;55.73;100017.59;6209927;28;97389;-65
2021/12/16 03:57:32;;;;;;;;;44.80;35.00;;;;;12.34;55.97;100021.13;6227141;28;97377;-65
2021/12/16 04:00:40;;;;;;;;;45.60;36.00;;;;;12.34;56.20;100026.53;6223288;28;97590;-65
2021/12/16 04:03:44;;;;;;;;;45.60;35.60;;;;;12.35;56.30;100025.50;6198310;28;97826;-65
2021/12/16 04:06:47;;;;;;;;;47.00;38.00;;;;;12.32;55.98;100014.25;6228008;28;97269;-65
2021/12/16 04:09:53;;;;;;;;;47.00;39.00;;;;;12.25;56.37;100030.47;6233032;28;97492;-65
2021/12/16 04:13:03;;;;;;;;;47.60;36.40;;;;;12.15;56.43;100030.88;6218658;28;96643;-65
2021/12/16 04:16:08;;;;;;;;;50.60;37.80;;;;;12.20;56.40;100037.53;6235371;27;97464;-65
2021/12/16 04:19:16;;;;;;;;;47.60;37.60;;;;;12.20;56.43;100041.06;6233389;28;96878;-64
2021/12/16 04:22:27;;;;;;;;;46.00;37.25;;;;;12.27;56.25;100035.66;6236652;28;97453;-65
2021/12/16 04:25:37;;;;;;;;;47.00;36.25;;;;;12.16;56.58;100029.00;6210277;28;99471;-65
2021/12/16 04:28:45;;;;;;;;;50.00;38.80;;;;;12.15;56.59;100030.88;6214051;27;97675;-65
2021/12/16 04:31:51;;;;;;;;;47.40;36.80;;;;;12.21;56.35;100040.03;6213852;28;97409;-65
2021/12/16 04:34:55;;;;;;;;;50.60;39.00;;;;;12.26;56.26;100037.56;6226350;27;96855;-65
2021/12/16 04:37:59;;;;;;;;;46.60;36.00;;;;;12.30;56.39;100044.22;6233357;28;97233;-65
2021/12/16 04:41:05;;;;;;;;;46.50;37.00;;;;;12.20;56.69;100042.94;6211032;28;97689;-64
2021/12/16 04:44:13;;;;;;;;;47.50;36.50;;;;;12.29;56.69;100039.00;6241902;27;96559;-64
2021/12/16 04:47:19;;;;;;;;;50.00;39.00;;;;;12.34;56.52;100037.34;6222102;28;98254;-64
2021/12/16 04:50:23;;;;;;;;;48.00;37.00;;;;;12.11;56.60;100026.91;6235439;28;96921;-65
2021/12/16 04:53:27;;;;;;;;;49.00;39.00;;;;;12.26;56.75;100044.84;6226513;28;96676;-65
2021/12/16 04:56:31;;;;;;;;;49.25;37.50;;;;;12.22;56.82;100036.28;6224518;27;97208;-64
2021/12/16 04:59:45;;;;;;;;;45.20;36.00;;;;;12.16;57.03;100042.53;6243222;27;96668;-65
2021/12/16 05:02:49;;;;;;;;;44.60;34.80;;;;;12.20;56.98;100043.78;6242038;28;97132;-65
2021/12/16 05:06:12;;;;;;;;;47.00;36.00;;;;;12.13;57.14;100035.63;6234223;27;97541;-65
2021/12/16 05:09:38;;;;;;;;;44.00;33.00;;;;;12.14;57.24;100044.59;6248063;27;96660;-65
2021/12/16 05:12:42;;;;;;;;;43.00;35.00;;;;;12.17;57.12;100043.34;6225456;27;98372;-64
2021/12/16 05:15:47;;;;;;;;;43.20;32.80;;;;;12.07;57.46;100055.38;6229884;27;97397;-65
2021/12/16 05:18:53;;;;;;;;;42.20;35.00;;;;;12.04;57.49;100058.47;6230421;27;96937;-66
2021/12/16 05:24:14;;;;;;;;;42.75;34.75;;;;;12.08;57.41;100056.19;6237505;28;98129;-66
2021/12/16 05:25:32;;;;;;;;;42.50;31.25;;;;;12.08;57.44;100057.03;6229420;27;96872;-65
2021/12/16 05:28:36;;;;;;;;;44.50;33.00;;;;;12.07;57.31;100062.66;6251259;27;96602;-65
2021/12/16 05:31:42;;;;;;;;;41.20;32.80;;;;;12.13;57.29;100057.25;6218583;28;97254;-65
2021/12/16 05:34:46;;;;;;;;;38.00;32.00;;;;;12.09;57.37;100077.63;6215045;27;99201;-66
2021/12/16 05:37:50;;;;;;;;;42.80;34.00;;;;;12.10;57.24;100060.38;6207572;27;98079;-66
2021/12/16 05:40:58;;;;;;;;;48.20;35.40;;;;;12.11;57.35;100062.06;6215493;28;97241;-65
2021/12/16 05:44:10;;;;;;;;;40.80;32.80;;;;;12.09;57.39;100060.56;6226881;27;97962;-66
2021/12/16 05:47:15;;;;;;;;;43.00;33.00;;;;;12.08;57.32;100065.16;6209005;27;99933;-66
2021/12/16 05:50:22;;;;;;;;;42.75;33.50;;;;;12.15;57.27;100078.69;6230377;27;97949;-66
2021/12/16 05:53:26;;;;;;;;;41.00;33.20;;;;;12.11;57.30;100080.97;6244632;27;97519;-65
2021/12/16 05:56:33;;;;;;;;;44.00;34.00;;;;;12.07;57.52;100074.28;6230894;28;96894;-65
2021/12/16 05:59:37;;;;;;;;;43.50;33.50;;;;;12.13;57.33;100078.06;6238765;28;97564;-66
2021/12/16 06:02:42;;;;;;;;;41.20;33.80;;;;;11.63;57.15;99995.53;6239384;27;97525;-66
2021/12/16 06:05:46;;;;;;;;;42.80;33.20;;;;;12.10;57.36;100078.47;6237533;28;97610;-65
2021/12/16 06:08:50;;;;;;;;;42.00;33.00;;;;;12.15;57.05;100079.53;6235293;27;97823;-66
2021/12/16 06:11:54;;;;;;;;;44.00;34.00;;;;;12.18;56.98;100085.56;6263556;27;97180;-65
2021/12/16 06:15:14;;;;;;;;;45.80;34.80;;;;;12.15;57.07;100084.94;6251804;27;98117;-65
2021/12/16 06:28:36;;;;;;;;;47.50;36.00;;;;;12.11;57.12;100075.56;6164787;28;97687;-65
2021/12/16 06:31:50;;;;;;;;;43.50;33.25;;;;;12.16;57.03;100080.38;6169680;28;97418;-64
2021/12/16 06:34:56;;;;;;;;;46.00;35.60;;;;;12.21;56.94;100082.47;6186297;28;96882;-66
2021/12/16 06:38:00;;;;;;;;;45.00;35.00;;;;;12.14;57.13;100090.53;6156031;28;98407;-65
2021/12/16 06:41:09;;;;;;;;;44.33;34.00;;;;;12.10;57.14;100089.28;6143919;28;97453;-65
2021/12/16 06:44:21;;;;;;;;;46.60;35.60;;;;;12.12;56.98;100092.59;6158931;28;97321;-65
2021/12/16 06:47:31;;;;;;;;;48.50;36.00;;;;;12.10;57.07;100090.13;6139968;28;97807;-65
2021/12/16 06:50:44;;;;;;;;;47.00;35.80;;;;;12.11;57.01;100090.97;6127901;28;97368;-65
2021/12/16 06:53:52;;;;;;;;;48.25;37.00;;;;;12.11;56.97;100099.91;6162142;28;96586;-64
2021/12/16 06:57:11;;;;;;;;;47.50;38.00;;;;;12.14;56.79;100095.94;6144063;28;96800;-64
2021/12/16 07:00:27;;;;;;;;;49.40;38.00;;;;;12.12;56.88;100106.13;6136409;28;100277;-65
2021/12/16 07:03:44;;;;;;;;;49.00;38.00;;;;;12.12;56.69;100106.13;6183012;27;97265;-66
2021/12/16 07:06:49;;;;;;;;;51.80;40.00;;;;;12.17;56.83;100095.53;6229589;27;97823;-66
2021/12/16 07:09:52;;;;;;;;;45.50;37.25;;;;;12.15;56.49;100098.47;6235259;27;97429;-65
2021/12/16 07:12:57;;;;;;;;;47.80;38.20;;;;;12.21;56.57;100099.53;6233051;27;97546;-65
2021/12/16 07:16:00;;;;;;;;;50.00;39.60;;;;;12.17;56.40;100100.94;6248195;27;97125;-65
2021/12/16 07:19:04;;;;;;;;;49.20;38.00;;;;;12.17;56.50;100092.81;6230435;28;96993;-64
2021/12/16 07:22:10;;;;;;;;;48.80;38.20;;;;;12.18;56.28;100093.66;6238219;27;97206;-65
2021/12/16 07:25:14;;;;;;;;;48.75;38.75;;;;;12.21;56.15;100087.88;6238637;28;97165;-65
2021/12/16 07:28:17;;;;;;;;;47.00;38.00;;;;;12.18;56.24;100083.69;6250234;27;96736;-64
2021/12/16 07:31:20;;;;;;;;;47.75;38.25;;;;;12.27;56.13;100092.44;6239267;27;97152;-65
2021/12/16 07:34:28;;;;;;;;;45.60;36.00;;;;;12.20;56.01;100086.19;6243400;27;97383;-65
2021/12/16 07:37:32;;;;;;;;;44.60;35.00;;;;;12.13;56.06;100078.88;6256351;27;96453;-65
2021/12/16 07:40:36;;;;;;;;;40.60;34.00;;;;;12.17;55.96;100082.00;6246556;27;97614;-65
2021/12/16 07:43:55;;;;;;;;;42.00;34.00;;;;;12.05;55.99;100080.94;6237799;27;97177;-65
2021/12/16 07:47:10;;;;;;;;;42.60;34.80;;;;;12.15;56.15;100081.41;6244978;27;97387;-66
2021/12/16 07:50:14;;;;;;;;;42.40;34.20;;;;;12.25;55.75;100076.44;6240906;27;96994;-65
2021/12/16 07:53:19;;;;;;;;;45.67;34.33;;;;;12.32;55.61;100076.44;6240407;27;97988;-66
2021/12/16 07:56:23;;;;;;;;;48.00;35.00;;;;;12.44;55.80;100075.66;6241886;27;97558;-67
2021/12/16 07:59:28;;;;;;;;;46.40;36.40;;;;;12.34;55.56;100056.28;6221346;28;99607;-64
2021/12/16 08:02:32;;;;;;;;;41.20;35.00;;;;;12.57;55.24;100080.25;6217470;28;96706;-65
2021/12/16 08:05:39;;;;;;;;;42.00;34.00;;;;;12.61;55.03;100080.69;6220255;27;98103;-65
2021/12/16 08:08:44;;;;;;;;;38.00;32.80;;;;;12.66;54.91;100068.19;6256919;27;97324;-65
2021/12/16 08:11:50;;;;;;;;;43.00;34.20;;;;;12.78;54.94;100088.19;6260527;27;96915;-65
2021/12/16 08:14:54;;;;;;;;;42.20;35.00;;;;;12.87;54.53;100089.66;6264773;27;97173;-65
2021/12/16 08:17:58;;;;;;;;;39.60;33.60;;;;;12.92;54.33;100081.75;6259887;27;98743;-64
2021/12/16 08:21:02;;;;;;;;;37.40;32.40;;;;;12.91;54.31;100084.66;6257263;27;97457;-64
2021/12/16 08:24:09;;;;;;;;;43.50;34.50;;;;;12.93;54.31;100082.59;6235147;27;96556;-66
2021/12/16 08:27:15;;;;;;;;;41.20;34.00;;;;;12.96;54.21;100083.00;6237940;27;97090;-65
2021/12/16 08:30:21;;;;;;;;;41.00;32.00;;;;;12.98;54.00;100083.63;6235996;27;97358;-65
2021/12/16 08:33:30;;;;;;;;;41.20;31.60;;;;;13.00;54.11;100092.38;6260653;27;96612;-65
2021/12/16 08:36:34;;;;;;;;;36.80;31.80;;;;;13.01;54.09;100090.50;6258398;27;97038;-64
2021/12/16 08:39:39;;;;;;;;;39.40;33.00;;;;;13.01;53.91;100087.78;6254227;27;98034;-64
2021/12/16 08:42:43;;;;;;;;;35.50;30.00;;;;;13.03;53.96;100091.13;6244597;27;97256;-65
2021/12/16 08:45:47;;;;;;;;;36.75;30.75;;;;;12.97;53.83;100084.66;6233678;27;96760;-65
2021/12/16 08:48:51;;;;;;;;;39.20;32.00;;;;;12.97;53.63;100086.53;6253503;27;97611;-65
2021/12/16 08:52:04;;;;;;;;;33.00;28.00;;;;;12.96;53.78;100079.44;6239636;27;96874;-64
2021/12/16 08:55:10;;;;;;;;;38.40;30.40;;;;;12.92;53.75;100079.03;6276969;27;97290;-64
2021/12/16 08:58:13;;;;;;;;;36.20;31.40;;;;;13.01;53.74;100077.78;6255142;27;96371;-64
2021/12/16 09:01:19;;;;;;;;;34.25;31.25;;;;;13.06;53.48;100077.16;6246534;27;97034;-65
2021/12/16 09:04:24;;;;;;;;;39.00;31.00;;;;;13.04;53.64;100068.44;6257079;27;97157;-65
2021/12/16 09:07:28;;;;;;;;;34.75;30.00;;;;;13.11;53.33;100071.13;6256081;27;97291;-65
2021/12/16 09:10:35;;;;;;;;;38.40;31.40;;;;;13.19;52.92;100062.84;6264088;27;98547;-65
2021/12/16 09:13:42;;;;;;;;;42.50;32.00;;;;;13.27;53.08;100068.03;6248188;27;97228;-66
2021/12/16 09:16:46;;;;;;;;;38.00;33.00;;;;;13.29;52.87;100065.94;6243463;27;97344;-64
2021/12/16 09:19:54;;;;;;;;;39.40;32.40;;;;;13.25;52.75;100060.09;6239940;27;98247;-65
2021/12/16 09:22:59;;;;;;;;;40.00;32.00;;;;;13.28;52.54;100056.16;6233642;27;96932;-65
2021/12/16 09:26:06;;;;;;;;;38.00;32.00;;;;;13.29;52.33;100066.75;6249147;27;96426;-64
2021/12/16 09:29:09;;;;;;;;;35.60;31.60;;;;;13.29;52.51;100065.94;6242899;27;98427;-65
2021/12/16 09:32:13;;;;;;;;;37.20;32.00;;;;;13.28;52.49;100062.41;6242696;27;97093;-65
2021/12/16 09:35:16;;;;;;;;;37.00;32.00;;;;;13.24;52.40;100057.63;6267428;27;96878;-65
2021/12/16 09:38:22;;;;;;;;;37.50;31.75;;;;;13.30;52.36;100056.75;6250632;27;96858;-64
2021/12/16 09:41:29;;;;;;;;;33.80;30.00;;;;;13.32;52.29;100055.50;6224313;28;96767;-65
2021/12/16 09:44:32;;;;;;;;;38.50;32.00;;;;;13.29;52.22;100050.50;6241803;27;98478;-66
2021/12/16 09:47:36;;;;;;;;;37.00;32.00;;;;;13.17;51.92;100043.25;6262067;27;97184;-65
2021/12/16 09:50:40;;;;;;;;;37.80;30.20;;;;;12.84;52.36;100006.19;6230137;27;97014;-65
2021/12/16 09:53:44;;;;;;;;;34.60;30.60;;;;;13.19;52.38;100049.28;6255990;27;96658;-66
2021/12/16 09:56:50;;;;;;;;;36.60;30.00;;;;;13.27;52.50;100051.78;6261565;27;96764;-65
2021/12/16 09:59:53;;;;;;;;;40.00;32.75;;;;;13.20;52.40;100030.09;6238667;27;96628;-65
2021/12/16 10:02:57;;;;;;;;;36.20;31.40;;;;;13.22;52.48;100032.63;6251035;27;97566;-65
2021/12/16 10:06:01;;;;;;;;;37.25;30.25;;;;;13.12;52.53;100033.03;6258454;27;96870;-65
2021/12/16 10:09:07;;;;;;;;;41.60;32.00;;;;;13.24;52.22;100030.53;6247483;27;96450;-65
2021/12/16 10:12:16;;;;;;;;;41.60;33.00;;;;;13.12;52.22;100016.78;6259123;27;96743;-64
2021/12/16 10:18:44;;;;;;;;;40.60;33.60;;;;;13.20;51.95;100024.69;6243719;27;96862;-64
2021/12/16 10:21:47;;;;;;;;;39.60;32.00;;;;;13.18;52.12;100021.38;6253658;27;96613;-67
2021/12/16 10:24:53;;;;;;;;;37.50;30.25;;;;;13.29;52.04;100018.00;6249618;27;96775;-65
2021/12/16 10:28:09;;;;;;;;;40.80;33.00;;;;;13.31;51.70;100018.63;6250186;27;98009;-66
2021/12/16 10:31:14;;;;;;;;;37.00;31.00;;;;;13.22;51.89;100013.66;6245484;27;97446;-65
2021/12/16 10:34:17;;;;;;;;;36.00;31.00;;;;;13.16;51.85;100006.38;6244130;27;97107;-66
2021/12/16 10:37:30;;;;;;;;;42.50;33.00;;;;;13.21;52.05;100009.28;6261416;27;97523;-66
2021/12/16 10:40:37;;;;;;;;;38.20;32.60;;;;;13.22;52.07;100010.94;6246425;27;96705;-65
2021/12/16 10:43:45;;;;;;;;;35.20;29.60;;;;;13.12;52.16;100003.25;6243051;27;97637;-65
2021/12/16 10:46:54;;;;;;;;;40.00;32.00;;;;;13.14;52.06;100013.88;6229300;27;99571;-65
2021/12/16 10:49:57;;;;;;;;;38.00;31.00;;;;;13.20;52.19;100011.16;6257686;27;96520;-65
2021/12/16 10:53:00;;;;;;;;;39.00;31.00;;;;;13.20;52.02;100015.72;6238785;28;97824;-66
2021/12/16 10:56:04;;;;;;;;;33.60;30.00;;;;;13.26;52.02;100014.88;6243228;27;96589;-65
2021/12/16 10:59:13;;;;;;;;;31.00;27.80;;;;;13.22;52.01;100019.91;6219480;27;99308;-66
2021/12/16 11:02:18;;;;;;;;;36.20;28.40;;;;;13.26;52.09;100015.72;6257382;27;97229;-66
2021/12/16 11:05:26;;;;;;;;;37.60;30.00;;;;;13.26;51.81;100009.47;6244694;27;97595;-66
2021/12/16 11:08:30;;;;;;;;;36.50;31.50;;;;;13.33;51.72;100013.00;6259113;27;97596;-65
2021/12/16 11:11:33;;;;;;;;;36.00;31.00;;;;;13.33;51.85;100015.72;6248989;27;97013;-65
2021/12/16 11:14:39;;;;;;;;;34.60;30.00;;;;;13.33;51.87;100008.44;6241450;27;96857;-65
2021/12/16 11:17:45;;;;;;;;;36.60;29.60;;;;;13.34;51.97;100017.41;6227442;27;97459;-66
2021/12/16 11:20:52;;;;;;;;;35.00;30.00;;;;;13.28;52.16;100007.41;6250201;27;97970;-66
2021/12/16 11:23:56;;;;;;;;;35.00;29.00;;;;;13.31;52.28;100007.78;6246071;27;97695;-65
2021/12/16 11:26:59;;;;;;;;;33.20;29.60;;;;;13.32;52.59;100005.94;6234082;27;96636;-66
2021/12/16 11:30:24;;;;;;;;;34.60;30.00;;;;;13.27;53.23;100011.97;6252157;27;96669;-65
2021/12/16 11:33:32;;;;;;;;;34.00;29.00;;;;;13.23;53.81;100004.50;6238413;27;96509;-66
2021/12/16 11:36:40;;;;;;;;;32.00;28.50;;;;;13.25;53.99;100002.38;6244666;27;97476;-65
2021/12/16 11:39:43;;;;;;;;;36.00;30.00;;;;;13.23;54.30;100009.91;6246769;27;96754;-66
2021/12/16 11:42:59;;;;;;;;;31.60;28.20;;;;;13.29;54.35;99993.63;6249764;27;97211;-65
2021/12/16 11:46:07;;;;;;;;;27.20;25.00;;;;;13.26;54.26;99987.81;6229855;27;98744;-66
2021/12/16 11:49:16;;;;;;;;;31.40;27.40;;;;;13.22;54.62;99986.56;6239456;27;97242;-65
2021/12/16 11:52:23;;;;;;;;;34.40;28.20;;;;;13.11;54.74;99992.59;6246226;27;97200;-66
2021/12/16 11:55:26;;;;;;;;;33.00;27.00;;;;;13.01;55.00;99990.31;6235386;27;97769;-66
2021/12/16 11:58:31;;;;;;;;;33.00;27.00;;;;;13.11;54.88;99993.47;6254637;27;98019;-66
2021/12/16 12:01:39;;;;;;;;;33.60;29.00;;;;;13.09;54.82;99992.00;6243153;27;97996;-66
2021/12/16 12:04:43;;;;;;;;;29.80;26.80;;;;;13.13;54.79;100004.09;6262665;27;97402;-66
2021/12/16 12:07:50;;;;;;;;;30.00;27.00;;;;;13.07;54.87;100004.91;6254323;27;96624;-66
2021/12/16 12:10:59;;;;;;;;;34.75;29.00;;;;;13.03;54.80;99991.78;6238827;27;97887;-66
2021/12/16 12:14:06;;;;;;;;;34.00;29.60;;;;;13.05;54.80;99996.97;6232692;27;97392;-66
2021/12/16 12:17:13;;;;;;;;;28.80;27.40;;;;;13.08;54.88;99993.03;6258011;27;98022;-66
2021/12/16 12:20:17;;;;;;;;;32.00;27.00;;;;;13.02;54.83;99975.75;6261189;27;96376;-65
2021/12/16 12:23:21;;;;;;;;;29.00;27.00;;;;;13.20;54.72;99991.34;6230843;27;97301;-66
2021/12/16 12:26:27;;;;;;;;;27.80;25.00;;;;;13.27;54.53;100001.16;6242336;27;97306;-65
2021/12/16 12:29:33;;;;;;;;;29.40;27.00;;;;;13.28;54.50;100007.41;6244573;27;97219;-67
2021/12/16 12:32:43;;;;;;;;;34.20;26.80;;;;;13.15;54.66;99993.88;6243911;27;97238;-65
2021/12/16 12:35:47;;;;;;;;;27.00;24.50;;;;;13.01;55.05;99999.28;6260099;27;97501;-66
2021/12/16 12:38:51;;;;;;;;;30.00;28.00;;;;;13.06;54.72;99981.56;6260299;27;96831;-65
2021/12/16 12:41:55;;;;;;;;;31.25;27.75;;;;;13.01;54.94;99991.16;6241896;27;100278;-66
2021/12/16 12:44:59;;;;;;;;;28.00;27.00;;;;;12.92;55.12;99981.59;6234922;27;96635;-65
2021/12/16 12:48:10;;;;;;;;;32.00;28.25;;;;;12.97;55.22;99997.22;6249899;27;97329;-65
2021/12/16 12:51:14;;;;;;;;;33.80;30.00;;;;;12.76;55.34;100003.66;6248805;27;97410;-65
2021/12/16 12:54:21;;;;;;;;;30.50;27.50;;;;;12.88;55.46;99996.59;6242825;27;99646;-64
2021/12/16 12:57:27;;;;;;;;;30.60;28.00;;;;;13.00;55.34;100002.19;6251074;27;96891;-65
2021/12/16 13:00:33;;;;;;;;;33.40;30.00;;;;;13.03;55.23;99999.91;6238123;27;98417;-65
2021/12/16 13:03:40;;;;;;;;;29.00;27.00;;;;;13.02;55.26;99990.13;6236056;27;96905;-66
2021/12/16 13:06:56;;;;;;;;;31.60;27.60;;;;;12.96;55.47;99988.25;6221791;28;97284;-66
2021/12/16 13:10:05;;;;;;;;;34.00;29.00;;;;;12.91;55.41;99976.38;6224546;28;97633;-65
2021/12/16 13:13:29;;;;;;;;;36.80;30.60;;;;;12.82;55.81;99977.66;6231791;27;98349;-64
2021/12/16 13:16:55;;;;;;;;;34.60;30.00;;;;;12.85;55.87;99982.66;6223952;28;97521;-67
2021/12/16 13:23:30;;;;;;;;;38.25;30.75;;;;;12.74;56.09;99991.41;6219005;28;99182;-65
2021/12/16 13:26:40;;;;;;;;;33.00;29.00;;;;;12.78;56.17;99993.47;6234129;28;98002;-64
2021/12/16 13:30:05;;;;;;;;;36.00;30.50;;;;;12.81;56.17;99995.75;6216968;28;97106;-66
2021/12/16 13:33:25;;;;;;;;;37.75;32.00;;;;;12.73;56.32;99997.84;6229892;28;97554;-65
2021/12/16 13:36:46;;;;;;;;;35.40;31.80;;;;;12.76;56.32;100009.09;6229518;28;97395;-65
2021/12/16 13:39:58;;;;;;;;;39.00;32.00;;;;;12.77;56.17;100001.81;6220889;28;97610;-65
2021/12/16 13:43:09;;;;;;;;;34.00;30.40;;;;;12.69;56.62;100005.56;6226568;28;97542;-65
2021/12/16 13:46:30;;;;;;;;;36.00;30.00;;;;;12.69;56.67;100000.16;6229924;28;96971;-65
2021/12/16 14:03:53;;;;;;;;;39.80;32.00;;;;;12.65;56.97;99990.78;6215652;28;97591;-65
2021/12/16 14:07:01;;;;;;;;;39.60;32.80;;;;;12.64;56.97;100001.81;6232532;27;97260;-65
2021/12/16 14:10:14;;;;;;;;;37.00;30.60;;;;;12.62;57.06;99969.53;6222962;28;97228;-64
2021/12/16 14:17:09;;;;;;;;;33.00;30.00;;;;;12.51;57.30;99962.88;6237825;28;97485;-65
2021/12/16 14:23:52;;;;;;;;;33.00;30.00;;;;;12.58;57.37;99990.78;6229144;27;96604;-66
2021/12/16 14:27:18;;;;;;;;;36.25;30.75;;;;;12.49;57.45;99988.47;6232203;28;96716;-65
2021/12/16 14:37:17;;;;;;;;;35.00;30.00;;;;;12.13;57.92;99959.94;6227739;28;96692;-64
2021/12/16 14:43:52;;;;;;;;;37.00;30.00;;;;;12.18;58.30;99999.03;6231110;28;96515;-64
2021/12/16 14:47:14;;;;;;;;;35.40;30.00;;;;;12.29;58.25;99993.88;6225978;28;98182;-64
2021/12/16 14:50:21;;;;;;;;;38.40;32.00;;;;;12.26;58.37;99999.69;6233934;27;98509;-65
2021/12/16 14:53:29;;;;;;;;;38.25;33.00;;;;;12.34;58.35;99998.66;6227669;27;97250;-65
2021/12/16 14:56:37;;;;;;;;;33.50;31.50;;;;;12.32;58.26;99995.31;6237845;27;97432;-64
2021/12/16 14:59:42;;;;;;;;;35.00;30.00;;;;;12.41;58.03;100002.22;6223448;28;97609;-64
2021/12/16 15:02:48;;;;;;;;;34.25;30.00;;;;;12.35;58.22;100011.16;6224664;28;96847;-65
2021/12/16 15:05:56;;;;;;;;;34.00;29.50;;;;;12.41;58.16;100013.03;6214247;28;97994;-65
2021/12/16 15:09:10;;;;;;;;;34.00;28.25;;;;;12.43;58.05;100008.25;6198156;28;97299;-65
2021/12/16 15:12:25;;;;;;;;;33.00;30.00;;;;;12.48;58.05;100013.88;6203651;28;97197;-67
2021/12/16 15:15:36;;;;;;;;;37.80;32.40;;;;;12.39;57.96;100002.41;6208010;28;96540;-66
2021/12/16 15:39:43;;;;;;;;;38.00;32.50;;;;;12.23;58.90;100007.38;6168041;28;97505;-66
2021/12/16 15:42:50;;;;;;;;;40.20;32.00;;;;;12.25;58.83;100014.25;6189064;28;97119;-65
2021/12/16 15:45:54;;;;;;;;;37.40;30.00;;;;;12.18;59.01;100020.66;6202330;28;96805;-66
2021/12/16 15:49:01;;;;;;;;;39.00;32.00;;;;;12.22;58.91;100013.84;6180530;28;97620;-64
2021/12/16 15:52:04;;;;;;;;;35.33;31.33;;;;;12.13;59.01;100013.16;6206388;28;96615;-66
2021/12/16 15:55:14;;;;;;;;;35.00;31.00;;;;;12.12;59.29;100025.00;6206639;28;97815;-65
2021/12/16 15:58:21;;;;;;;;;32.00;28.00;;;;;12.07;59.11;100031.03;6193759;28;97546;-65
2021/12/16 16:01:28;;;;;;;;;35.60;29.00;;;;;12.11;59.24;100047.72;6195949;28;97323;-65
2021/12/16 16:04:37;;;;;;;;;37.40;31.00;;;;;12.22;59.04;100047.09;6221985;27;97691;-65
2021/12/16 16:07:41;;;;;;;;;38.00;31.75;;;;;12.21;58.93;100033.78;6247753;27;96535;-66
2021/12/16 16:10:48;;;;;;;;;35.40;30.40;;;;;12.15;59.05;100032.75;6246208;27;97491;-65
2021/12/16 16:13:56;;;;;;;;;34.40;28.40;;;;;12.24;59.07;100041.50;6238960;27;97311;-65
2021/12/16 16:17:11;;;;;;;;;32.40;28.60;;;;;12.14;59.27;100044.59;6230843;27;97850;-65
2021/12/16 16:20:16;;;;;;;;;33.20;29.20;;;;;12.29;58.83;100058.78;6238858;27;97390;-65
2021/12/16 16:23:19;;;;;;;;;35.25;30.00;;;;;12.25;58.58;100048.56;6261591;27;96517;-65
2021/12/16 16:26:24;;;;;;;;;29.80;28.40;;;;;12.41;58.73;100070.63;6262056;27;97694;-64
2021/12/16 16:29:30;;;;;;;;;31.75;26.25;;;;;12.45;58.45;100076.50;6262688;27;96473;-65
2021/12/16 16:33:04;;;;;;;;;26.00;24.00;;;;;12.50;58.36;100091.06;6262770;27;97457;-65
2021/12/16 16:36:12;;;;;;;;;30.00;26.00;;;;;12.57;58.17;100089.19;6263098;27;96557;-66
2021/12/16 16:39:18;;;;;;;;;28.00;24.00;;;;;12.57;57.92;100088.38;6251729;27;96721;-65
2021/12/16 16:42:28;;;;;;;;;26.00;24.00;;;;;12.54;58.09;100080.66;6259108;27;97479;-64
2021/12/16 16:45:33;;;;;;;;;27.67;24.67;;;;;12.60;57.92;100087.97;6243350;27;99681;-65
2021/12/16 16:48:51;;;;;;;;;29.00;25.00;;;;;12.62;57.56;100094.00;6243896;27;97943;-65
2021/12/16 16:51:58;;;;;;;;;27.00;24.20;;;;;12.63;57.75;100087.53;6246769;27;96771;-65
2021/12/16 16:55:07;;;;;;;;;28.60;25.00;;;;;12.75;57.67;100093.19;6265626;27;96608;-66
2021/12/16 16:58:16;;;;;;;;;25.80;24.20;;;;;12.83;57.49;100090.28;6246256;27;96976;-64